createdAt,value
2017-11-17T00:01:41.255Z,4.60
2017-11-17T00:04:08.697Z,4.60
2017-11-17T00:06:36.907Z,4.60
2017-11-17T00:09:04.334Z,4.60
2017-11-17T00:11:31.759Z,4.70
2017-11-17T00:13:59.187Z,4.60
2017-11-17T00:16:26.624Z,4.60
2017-11-17T00:18:54.052Z,4.60
2017-11-17T00:21:22.265Z,4.60
2017-11-17T00:23:49.703Z,4.60
2017-11-17T00:26:17.149Z,4.60
2017-11-17T00:28:44.577Z,4.50
2017-11-17T00:31:12.022Z,4.60
2017-11-17T00:33:39.454Z,4.50
2017-11-17T00:36:06.884Z,4.60
2017-11-17T00:38:34.326Z,4.50
2017-11-17T00:41:02.521Z,4.40
2017-11-17T00:43:29.944Z,4.40
2017-11-17T00:45:58.160Z,4.60
2017-11-17T00:48:25.588Z,4.50
2017-11-17T00:50:53.784Z,4.60
2017-11-17T00:53:21.216Z,4.60
2017-11-17T00:55:49.417Z,4.70
2017-11-17T00:58:16.851Z,4.70
2017-11-17T01:00:45.060Z,4.80
2017-11-17T01:03:12.485Z,4.70
2017-11-17T01:05:40.673Z,4.80
2017-11-17T01:08:08.124Z,4.80
2017-11-17T01:10:35.560Z,4.80
2017-11-17T01:13:02.984Z,4.80
2017-11-17T01:15:30.420Z,4.70
2017-11-17T01:17:57.866Z,4.70
2017-11-17T01:20:25.293Z,4.60
2017-11-17T01:22:53.497Z,4.70
2017-11-17T01:25:20.925Z,4.70
2017-11-17T01:27:49.136Z,4.70
2017-11-17T01:30:16.549Z,4.70
2017-11-17T01:32:43.985Z,4.70
2017-11-17T01:35:12.385Z,4.60
2017-11-17T01:37:39.838Z,4.60
2017-11-17T01:40:07.265Z,4.60
2017-11-17T01:42:34.707Z,4.60
2017-11-17T01:45:02.141Z,4.60
2017-11-17T01:47:29.573Z,4.60
2017-11-17T01:49:57.022Z,4.60
2017-11-17T01:52:24.450Z,4.60
2017-11-17T01:54:51.893Z,4.60
2017-11-17T01:57:19.334Z,4.60
2017-11-17T01:59:46.771Z,4.60
2017-11-17T02:02:20.796Z,4.60
2017-11-17T02:04:48.236Z,4.60
2017-11-17T02:07:16.429Z,4.70
2017-11-17T02:09:43.864Z,4.60
2017-11-17T02:12:12.078Z,4.60
2017-11-17T02:14:39.520Z,4.50
2017-11-17T02:17:06.949Z,4.50
2017-11-17T02:19:45.752Z,4.40
2017-11-17T02:22:13.178Z,4.40
2017-11-17T02:24:40.630Z,4.50
2017-11-17T02:27:08.066Z,4.40
2017-11-17T02:29:35.497Z,4.40
2017-11-17T02:32:10.392Z,4.40
2017-11-17T02:34:37.833Z,4.40
2017-11-17T02:37:05.260Z,4.40
2017-11-17T02:39:33.449Z,4.60
2017-11-17T02:42:00.876Z,4.60
2017-11-17T02:44:29.096Z,4.50
2017-11-17T02:46:56.530Z,4.50
2017-11-17T02:49:23.963Z,4.50
2017-11-17T02:51:52.160Z,4.50
2017-11-17T02:54:19.598Z,4.50
2017-11-17T02:56:47.816Z,4.50
2017-11-17T02:59:15.245Z,4.40
2017-11-17T03:01:42.700Z,4.40
2017-11-17T03:04:12.902Z,4.40
2017-11-17T03:06:40.342Z,4.30
2017-11-17T03:09:07.788Z,4.30
2017-11-17T03:11:35.233Z,4.30
2017-11-17T03:14:02.665Z,4.40
2017-11-17T03:16:30.142Z,4.30
2017-11-17T03:18:57.578Z,4.30
2017-11-17T03:21:25.014Z,4.20
2017-11-17T03:23:53.225Z,4.20
2017-11-17T03:26:20.669Z,4.20
2017-11-17T03:28:48.102Z,4.10
2017-11-17T03:31:16.340Z,4.30
2017-11-17T03:33:50.565Z,4.20
2017-11-17T03:36:18.005Z,4.30
2017-11-17T03:38:45.446Z,4.20
2017-11-17T03:41:12.892Z,4.20
2017-11-17T03:43:40.318Z,4.30
2017-11-17T03:46:08.521Z,4.30
2017-11-17T03:48:35.957Z,4.30
2017-11-17T03:51:04.160Z,4.40
2017-11-17T03:53:31.585Z,4.30
2017-11-17T03:55:59.802Z,4.40
2017-11-17T03:58:27.239Z,4.40
2017-11-17T04:00:54.670Z,4.40
2017-11-17T04:03:22.885Z,4.40
2017-11-17T04:05:50.311Z,4.40
2017-11-17T04:08:18.531Z,4.50
2017-11-17T04:10:45.981Z,4.50
2017-11-17T04:13:13.422Z,4.50
2017-11-17T04:15:41.861Z,4.50
2017-11-17T04:18:09.350Z,4.50
2017-11-17T04:20:38.726Z,4.50
2017-11-17T04:23:07.114Z,4.50
2017-11-17T04:25:35.312Z,4.50
2017-11-17T04:28:03.762Z,4.50
2017-11-17T04:30:31.209Z,4.60
2017-11-17T04:32:58.733Z,4.50
2017-11-17T04:35:27.160Z,4.50
2017-11-17T04:37:54.586Z,4.40
2017-11-17T04:40:22.090Z,4.50
2017-11-17T04:42:49.514Z,4.40
2017-11-17T04:45:16.945Z,4.40
2017-11-17T04:47:44.399Z,4.40
2017-11-17T04:50:11.810Z,4.40
2017-11-17T04:52:40.023Z,4.40
2017-11-17T04:55:08.720Z,4.40
2017-11-17T04:57:36.145Z,4.50
2017-11-17T05:00:03.590Z,4.40
2017-11-17T05:02:31.794Z,4.30
2017-11-17T05:05:01.258Z,4.30
2017-11-17T05:07:33.347Z,4.40
2017-11-17T05:10:00.785Z,4.40
2017-11-17T05:12:28.981Z,4.50
2017-11-17T05:14:56.411Z,4.50
2017-11-17T05:17:24.619Z,4.50
2017-11-17T05:19:52.047Z,4.50
2017-11-17T05:22:20.263Z,4.50
2017-11-17T05:24:47.690Z,4.50
2017-11-17T05:27:15.909Z,4.40
2017-11-17T05:29:43.354Z,4.40
2017-11-17T05:32:10.777Z,4.50
2017-11-17T05:34:39.002Z,4.40
2017-11-17T05:37:06.440Z,4.40
2017-11-17T05:39:33.879Z,4.40
2017-11-17T05:42:12.331Z,4.40
2017-11-17T05:44:39.773Z,4.40
2017-11-17T05:47:07.202Z,4.40
2017-11-17T05:49:34.643Z,4.30
2017-11-17T05:52:04.758Z,4.40
2017-11-17T05:54:32.214Z,4.40
2017-11-17T05:56:59.662Z,4.40
2017-11-17T05:59:27.102Z,4.40
2017-11-17T06:01:54.543Z,4.40
2017-11-17T06:04:21.989Z,4.40
2017-11-17T06:06:49.429Z,4.50
2017-11-17T06:09:16.870Z,4.50
2017-11-17T06:11:45.066Z,4.50
2017-11-17T06:14:12.524Z,4.50
2017-11-17T06:16:39.948Z,4.50
2017-11-17T06:19:08.146Z,4.40
2017-11-17T06:21:35.582Z,4.40
2017-11-17T06:24:03.779Z,4.50
2017-11-17T06:26:32.006Z,4.40
2017-11-17T06:28:59.449Z,4.40
2017-11-17T06:31:26.887Z,4.40
2017-11-17T06:33:54.339Z,4.40
2017-11-17T06:36:28.485Z,4.50
2017-11-17T06:38:55.944Z,4.50
2017-11-17T06:41:40.273Z,4.50
2017-11-17T06:44:07.710Z,4.50
2017-11-17T06:46:35.156Z,4.50
2017-11-17T06:49:03.364Z,4.40
2017-11-17T06:51:31.907Z,4.40
2017-11-17T06:54:00.110Z,4.50
2017-11-17T06:56:27.721Z,4.50
2017-11-17T06:58:55.301Z,4.60
2017-11-17T07:01:23.506Z,4.60
2017-11-17T07:03:50.944Z,4.60
2017-11-17T07:06:18.383Z,4.60
2017-11-17T07:08:50.338Z,4.60
2017-11-17T07:11:17.769Z,4.60
2017-11-17T07:13:45.249Z,4.60
2017-11-17T07:16:12.695Z,4.70
2017-11-17T07:18:40.125Z,4.70
2017-11-17T07:21:07.630Z,4.70
2017-11-17T07:23:35.139Z,4.80
2017-11-17T07:26:02.549Z,4.80
2017-11-17T07:28:30.769Z,5.00
2017-11-17T07:30:58.193Z,5.00
2017-11-17T07:33:25.830Z,5.00
2017-11-17T07:35:53.266Z,5.10
2017-11-17T07:38:20.697Z,5.10
2017-11-17T07:40:48.133Z,5.10
2017-11-17T07:43:19.054Z,5.10
2017-11-17T07:45:47.263Z,5.10
2017-11-17T07:48:14.700Z,5.10
2017-11-17T07:50:42.129Z,5.10
2017-11-17T07:53:09.571Z,5.10
2017-11-17T07:55:37.006Z,5.00
2017-11-17T07:58:05.213Z,5.00
2017-11-17T08:00:32.638Z,5.00
2017-11-17T08:03:00.085Z,4.90
2017-11-17T08:05:27.527Z,5.00
2017-11-17T08:07:55.089Z,5.00
2017-11-17T08:10:23.279Z,4.90
2017-11-17T08:12:50.707Z,4.90
2017-11-17T08:15:18.166Z,4.90
2017-11-17T08:17:57.475Z,4.90
2017-11-17T08:20:24.945Z,4.90
2017-11-17T08:22:54.252Z,4.80
2017-11-17T08:25:21.666Z,4.80
2017-11-17T08:27:49.101Z,4.90
2017-11-17T08:30:16.560Z,4.90
2017-11-17T08:32:43.993Z,5.00
2017-11-17T08:35:11.465Z,5.10
2017-11-17T08:37:38.901Z,5.10
2017-11-17T08:40:06.338Z,5.20
2017-11-17T08:42:34.542Z,5.10
2017-11-17T08:45:01.975Z,5.10
2017-11-17T08:47:30.177Z,5.00
2017-11-17T08:49:57.606Z,5.00
2017-11-17T08:52:25.856Z,5.10
2017-11-17T08:54:53.453Z,5.10
2017-11-17T08:57:20.888Z,5.00
2017-11-17T08:59:48.335Z,5.10
2017-11-17T09:02:15.802Z,5.10
2017-11-17T09:04:43.250Z,5.10
2017-11-17T09:07:10.678Z,5.20
2017-11-17T09:09:38.114Z,5.20
2017-11-17T09:12:05.557Z,5.20
2017-11-17T09:14:32.997Z,5.10
2017-11-17T09:17:01.210Z,5.10
2017-11-17T09:19:29.346Z,5.10
2017-11-17T09:21:56.770Z,5.10
2017-11-17T09:24:26.213Z,5.10
2017-11-17T09:26:54.564Z,5.10
2017-11-17T09:29:22.018Z,5.10
2017-11-17T09:31:49.492Z,5.20
2017-11-17T09:34:16.926Z,5.20
2017-11-17T09:36:44.367Z,5.20
2017-11-17T09:39:11.811Z,5.20
2017-11-17T09:41:39.314Z,5.20
2017-11-17T09:44:07.450Z,5.20
2017-11-17T09:46:34.957Z,5.20
2017-11-17T09:49:03.234Z,5.40
2017-11-17T09:51:31.560Z,5.50
2017-11-17T09:53:59.018Z,5.40
2017-11-17T09:56:26.465Z,5.30
2017-11-17T09:58:54.582Z,5.40
2017-11-17T10:01:22.025Z,5.40
2017-11-17T10:04:01.367Z,5.40
2017-11-17T10:06:29.890Z,5.40
2017-11-17T10:08:59.128Z,5.50
2017-11-17T10:11:26.553Z,5.40
2017-11-17T10:13:53.994Z,5.40
2017-11-17T10:16:23.402Z,5.50
2017-11-17T10:18:50.854Z,5.50
2017-11-17T10:21:19.065Z,5.60
2017-11-17T10:23:46.506Z,5.60
2017-11-17T10:26:13.946Z,5.60
2017-11-17T10:28:42.142Z,5.70
2017-11-17T10:31:09.701Z,5.70
2017-11-17T10:33:38.166Z,5.80
2017-11-17T10:36:11.555Z,5.70
2017-11-17T10:38:39.771Z,5.70
2017-11-17T10:41:07.195Z,5.70
2017-11-17T10:43:46.298Z,5.70
2017-11-17T10:46:13.751Z,5.80
2017-11-17T10:48:41.213Z,5.80
2017-11-17T10:51:08.678Z,5.80
2017-11-17T10:53:36.170Z,5.80
2017-11-17T10:56:04.390Z,5.80
2017-11-17T10:58:31.838Z,5.90
2017-11-17T11:00:59.302Z,5.90
2017-11-17T11:03:26.746Z,5.90
2017-11-17T11:05:54.263Z,5.80
2017-11-17T11:08:22.490Z,5.90
2017-11-17T11:10:55.652Z,5.90
2017-11-17T11:13:23.103Z,5.90
2017-11-17T11:15:50.614Z,5.90
2017-11-17T11:18:18.041Z,5.90
2017-11-17T11:20:45.476Z,5.90
2017-11-17T11:23:12.912Z,5.90
2017-11-17T11:25:41.121Z,5.90
2017-11-17T11:28:08.556Z,5.80
2017-11-17T11:30:37.010Z,5.80
2017-11-17T11:33:04.450Z,5.90
2017-11-17T11:35:31.886Z,5.90
2017-11-17T11:37:59.342Z,5.90
2017-11-17T11:40:26.775Z,6.10
2017-11-17T11:42:54.204Z,6.10
2017-11-17T11:45:22.416Z,6.10
2017-11-17T11:47:49.841Z,6.10
2017-11-17T11:50:18.053Z,6.10
2017-11-17T11:52:45.507Z,6.00
2017-11-17T11:55:12.931Z,6.10
2017-11-17T11:57:40.355Z,6.20
2017-11-17T12:00:07.794Z,6.30
2017-11-17T12:02:35.221Z,6.40
2017-11-17T12:05:02.658Z,6.40
2017-11-17T12:07:30.858Z,6.50
2017-11-17T12:09:59.165Z,6.60
2017-11-17T12:12:26.661Z,6.50
2017-11-17T12:14:54.855Z,6.50
2017-11-17T12:17:22.330Z,6.50
2017-11-17T12:19:49.777Z,6.60
2017-11-17T12:22:17.226Z,6.60
2017-11-17T12:24:44.655Z,6.50
2017-11-17T12:27:12.083Z,6.60
2017-11-17T12:29:39.523Z,6.80
2017-11-17T12:32:14.788Z,6.90
2017-11-17T12:34:48.438Z,6.90
2017-11-17T12:37:15.949Z,6.90
2017-11-17T12:39:43.413Z,7.00
2017-11-17T12:42:10.858Z,7.10
2017-11-17T12:44:48.255Z,7.20
2017-11-17T12:47:16.477Z,7.30
2017-11-17T12:49:43.933Z,7.20
2017-11-17T12:52:11.370Z,7.30
2017-11-17T12:54:39.674Z,7.40
2017-11-17T12:57:07.106Z,7.30
2017-11-17T12:59:35.307Z,7.40
2017-11-17T13:02:02.732Z,7.40
2017-11-17T13:04:30.939Z,7.40
2017-11-17T13:07:01.947Z,7.40
2017-11-17T13:09:29.414Z,7.50
2017-11-17T13:11:57.613Z,7.50
2017-11-17T13:14:25.050Z,7.50
2017-11-17T13:16:53.246Z,7.60
2017-11-17T13:19:20.676Z,7.60
2017-11-17T13:21:48.870Z,7.70
2017-11-17T13:24:16.297Z,7.70
2017-11-17T13:26:44.587Z,7.70
2017-11-17T13:29:12.789Z,7.50
2017-11-17T13:31:41.235Z,7.50
2017-11-17T13:34:09.437Z,7.30
2017-11-17T13:36:36.869Z,7.30
2017-11-17T13:39:05.077Z,7.30
2017-11-17T13:41:32.514Z,7.30
2017-11-17T13:44:00.714Z,7.20
2017-11-17T13:46:28.155Z,7.20
2017-11-17T13:48:55.585Z,7.30
2017-11-17T13:51:23.870Z,7.30
2017-11-17T13:53:55.833Z,7.30
2017-11-17T13:56:24.037Z,7.30
2017-11-17T13:58:51.486Z,7.30
2017-11-17T14:01:25.235Z,7.30
2017-11-17T14:03:52.673Z,7.30
2017-11-17T14:06:20.104Z,7.30
2017-11-17T14:08:51.525Z,7.30
2017-11-17T14:11:19.739Z,7.40
2017-11-17T14:14:00.725Z,7.30
2017-11-17T14:16:28.145Z,7.40
2017-11-17T14:18:56.350Z,7.50
2017-11-17T14:21:24.797Z,7.40
2017-11-17T14:23:53.074Z,7.60
2017-11-17T14:26:21.419Z,7.60
2017-11-17T14:28:48.970Z,7.50
2017-11-17T14:31:16.458Z,7.60
2017-11-17T14:33:43.894Z,7.60
2017-11-17T14:36:11.324Z,7.60
2017-11-17T14:38:39.541Z,7.60
2017-11-17T14:41:06.995Z,7.60
2017-11-17T14:43:34.477Z,7.60
2017-11-17T14:46:02.675Z,7.60
2017-11-17T14:48:30.121Z,7.60
2017-11-17T14:50:57.549Z,7.60
2017-11-17T14:53:25.020Z,7.40
2017-11-17T14:55:53.210Z,7.40
2017-11-17T14:58:20.648Z,7.40
2017-11-17T15:00:49.837Z,7.30
2017-11-17T15:03:18.041Z,7.30
2017-11-17T15:05:45.494Z,7.20
2017-11-17T15:08:13.690Z,7.10
2017-11-17T15:10:41.118Z,7.10
2017-11-17T15:13:10.317Z,7.00
2017-11-17T15:15:43.918Z,7.00
2017-11-17T15:18:12.130Z,7.00
2017-11-17T15:20:41.707Z,6.90
2017-11-17T15:23:09.892Z,7.00
2017-11-17T15:25:37.334Z,6.90
2017-11-17T15:28:05.536Z,7.20
2017-11-17T15:30:32.993Z,7.10
2017-11-17T15:33:00.434Z,7.20
2017-11-17T15:35:28.697Z,7.10
2017-11-17T15:37:56.143Z,7.10
2017-11-17T15:40:24.346Z,7.20
2017-11-17T15:42:51.774Z,7.20
2017-11-17T15:45:19.234Z,7.30
2017-11-17T15:47:47.429Z,7.30
2017-11-17T15:50:14.883Z,7.30
2017-11-17T15:52:42.320Z,7.30
2017-11-17T15:55:09.774Z,7.30
2017-11-17T15:57:37.989Z,7.50
2017-11-17T16:00:07.496Z,7.40
2017-11-17T16:02:35.706Z,7.40
2017-11-17T16:05:03.168Z,7.40
2017-11-17T16:07:30.642Z,7.40
2017-11-17T16:09:58.850Z,7.40
2017-11-17T16:12:27.201Z,7.40
2017-11-17T16:14:55.403Z,7.40
2017-11-17T16:17:22.875Z,7.40
2017-11-17T16:19:50.293Z,7.30
2017-11-17T16:22:18.493Z,7.30
2017-11-17T16:24:45.938Z,7.20
2017-11-17T16:27:13.378Z,7.30
2017-11-17T16:29:41.581Z,7.40
2017-11-17T16:32:09.021Z,7.40
2017-11-17T16:34:37.226Z,7.20
2017-11-17T16:37:04.695Z,7.20
2017-11-17T16:39:32.110Z,7.30
2017-11-17T16:42:00.322Z,6.90
2017-11-17T16:44:27.754Z,6.90
2017-11-17T16:46:55.193Z,6.90
2017-11-17T16:49:23.393Z,7.10
2017-11-17T16:51:50.838Z,7.10
2017-11-17T16:54:19.043Z,7.10
2017-11-17T16:56:46.478Z,7.10
2017-11-17T16:59:13.925Z,7.20
2017-11-17T17:01:42.126Z,7.10
2017-11-17T17:04:09.561Z,7.10
2017-11-17T17:06:37.003Z,7.10
2017-11-17T17:09:05.214Z,7.10
2017-11-17T17:11:32.691Z,7.00
2017-11-17T17:14:00.144Z,7.10
2017-11-17T17:16:27.591Z,7.10
2017-11-17T17:18:55.018Z,7.00
2017-11-17T17:21:22.463Z,7.10
2017-11-17T17:23:49.902Z,7.10
2017-11-17T17:26:17.337Z,7.10
2017-11-17T17:28:44.794Z,7.10
2017-11-17T17:31:12.239Z,7.10
2017-11-17T17:33:39.681Z,7.20
2017-11-17T17:36:07.106Z,7.20
2017-11-17T17:38:35.326Z,7.10
2017-11-17T17:41:02.762Z,7.10
2017-11-17T17:43:30.206Z,7.20
2017-11-17T17:45:57.641Z,7.20
2017-11-17T17:48:25.102Z,7.20
2017-11-17T17:50:52.530Z,7.20
2017-11-17T17:53:19.979Z,7.20
2017-11-17T17:55:47.416Z,7.20
2017-11-17T17:58:14.871Z,7.20
2017-11-17T18:00:42.295Z,7.20
2017-11-17T18:03:10.518Z,7.20
2017-11-17T18:05:37.952Z,7.20
2017-11-17T18:08:05.389Z,7.10
2017-11-17T18:10:32.822Z,7.10
2017-11-17T18:13:00.261Z,7.00
2017-11-17T18:15:28.462Z,7.00
2017-11-17T18:17:56.669Z,7.10
2017-11-17T18:20:24.103Z,7.10
2017-11-17T18:22:52.344Z,7.10
2017-11-17T18:25:19.817Z,7.10
2017-11-17T18:27:47.219Z,7.10
2017-11-17T18:30:14.642Z,7.20
2017-11-17T18:32:42.892Z,7.30
2017-11-17T18:35:12.260Z,7.30
2017-11-17T18:37:40.432Z,7.20
2017-11-17T18:40:07.917Z,7.20
2017-11-17T18:42:35.304Z,7.20
2017-11-17T18:45:03.530Z,7.10
2017-11-17T18:47:30.953Z,7.10
2017-11-17T18:49:59.191Z,7.30
2017-11-17T18:52:27.411Z,7.30
2017-11-17T18:54:54.820Z,7.30
2017-11-17T18:57:22.298Z,7.30
2017-11-17T18:59:49.706Z,7.30
2017-11-17T19:02:17.179Z,7.30
2017-11-17T19:04:44.579Z,7.40
2017-11-17T19:07:12.789Z,7.40
2017-11-17T19:09:42.182Z,7.40
2017-11-17T19:12:10.364Z,7.50
2017-11-17T19:14:37.826Z,7.50
2017-11-17T19:17:05.238Z,7.50
2017-11-17T19:19:32.686Z,7.50
2017-11-17T19:22:00.119Z,7.60
2017-11-17T19:24:27.561Z,7.50
2017-11-17T19:26:54.993Z,7.40
2017-11-17T19:29:22.445Z,7.50
2017-11-17T19:31:49.873Z,7.50
2017-11-17T19:34:17.314Z,7.50
2017-11-17T19:36:44.751Z,7.50
2017-11-17T19:39:12.182Z,7.50
2017-11-17T19:41:39.638Z,7.40
2017-11-17T19:44:07.080Z,7.50
2017-11-17T19:46:38.931Z,7.40
2017-11-17T19:49:07.130Z,7.50
2017-11-17T19:51:34.566Z,7.50
2017-11-17T19:54:02.791Z,7.40
2017-11-17T19:56:30.246Z,7.40
2017-11-17T19:58:57.668Z,7.50
2017-11-17T20:01:25.111Z,7.50
2017-11-17T20:03:53.310Z,7.50
2017-11-17T20:06:20.754Z,7.40
2017-11-17T20:08:48.966Z,7.50
2017-11-17T20:11:16.413Z,7.50
2017-11-17T20:13:43.848Z,7.50
2017-11-17T20:16:11.290Z,7.60
2017-11-17T20:18:39.501Z,7.60
2017-11-17T20:21:06.942Z,7.60
2017-11-17T20:23:34.388Z,7.60
2017-11-17T20:26:06.122Z,7.70
2017-11-17T20:28:33.573Z,7.60
2017-11-17T20:31:01.005Z,7.70
2017-11-17T20:33:28.447Z,7.70
2017-11-17T20:35:55.878Z,7.70
2017-11-17T20:38:23.326Z,7.70
2017-11-17T20:40:51.591Z,7.70
2017-11-17T20:43:19.024Z,7.70
2017-11-17T20:45:46.461Z,7.60
2017-11-17T20:48:13.907Z,7.60
2017-11-17T20:50:45.114Z,7.70
2017-11-17T20:53:14.180Z,7.60
2017-11-17T20:55:41.619Z,7.70
2017-11-17T20:58:09.065Z,7.70
2017-11-17T21:00:36.508Z,7.70
2017-11-17T21:03:03.945Z,7.70
2017-11-17T21:05:31.398Z,7.70
2017-11-17T21:07:59.630Z,7.70
2017-11-17T21:10:27.065Z,7.70
2017-11-17T21:12:54.512Z,7.70
2017-11-17T21:15:21.946Z,7.70
2017-11-17T21:17:50.148Z,7.70
2017-11-17T21:20:17.585Z,7.70
2017-11-17T21:22:45.022Z,7.70
2017-11-17T21:25:12.478Z,7.70
2017-11-17T21:27:39.915Z,7.70
2017-11-17T21:30:07.370Z,7.70
2017-11-17T21:32:35.582Z,7.70
2017-11-17T21:35:03.798Z,7.60
2017-11-17T21:37:31.247Z,7.60
2017-11-17T21:39:58.681Z,7.60
2017-11-17T21:42:26.118Z,7.50
2017-11-17T21:44:54.318Z,7.60
2017-11-17T21:47:21.759Z,7.60
2017-11-17T21:49:49.960Z,7.60
2017-11-17T21:52:17.421Z,7.60
2017-11-17T21:54:44.837Z,7.60
2017-11-17T21:57:12.274Z,7.60
2017-11-17T21:59:39.744Z,7.60
2017-11-17T22:02:07.205Z,7.60
2017-11-17T22:04:34.642Z,7.50
2017-11-17T22:07:02.115Z,7.50
2017-11-17T22:09:29.560Z,7.60
2017-11-17T22:11:56.976Z,7.40
2017-11-17T22:14:24.426Z,7.40
2017-11-17T22:16:51.862Z,7.30
2017-11-17T22:19:19.303Z,7.30
2017-11-17T22:21:46.747Z,7.20
2017-11-17T22:24:14.183Z,7.20
2017-11-17T22:26:41.623Z,7.20
2017-11-17T22:29:09.062Z,7.20
2017-11-17T22:31:36.493Z,7.10
2017-11-17T22:34:04.702Z,7.20
2017-11-17T22:36:32.135Z,7.10
2017-11-17T22:39:00.410Z,7.20
2017-11-17T22:41:27.830Z,7.10
2017-11-17T22:43:55.267Z,7.10
2017-11-17T22:46:22.702Z,7.20
2017-11-17T22:48:50.138Z,7.10
2017-11-17T22:51:18.367Z,7.00
2017-11-17T22:53:45.814Z,7.00
2017-11-17T22:56:13.262Z,7.10
2017-11-17T22:58:40.702Z,7.10
2017-11-17T23:01:08.241Z,7.20
2017-11-17T23:03:36.443Z,7.20
2017-11-17T23:06:03.916Z,7.20
2017-11-17T23:08:31.336Z,7.30
2017-11-17T23:11:00.842Z,7.30
2017-11-17T23:13:28.278Z,7.40
2017-11-17T23:15:55.722Z,7.40
2017-11-17T23:18:23.162Z,7.40
2017-11-17T23:20:50.609Z,7.40
2017-11-17T23:23:18.039Z,7.30
2017-11-17T23:25:45.497Z,7.40
2017-11-17T23:28:12.945Z,7.40
2017-11-17T23:30:40.387Z,7.40
2017-11-17T23:33:08.613Z,7.50
2017-11-17T23:35:36.046Z,7.50
2017-11-17T23:38:03.486Z,7.40
2017-11-17T23:40:31.693Z,7.40
2017-11-17T23:42:59.150Z,7.30
2017-11-17T23:45:26.584Z,7.30
2017-11-17T23:47:54.125Z,7.30
2017-11-17T23:50:21.570Z,7.30
2017-11-17T23:52:49.075Z,7.30
2017-11-17T23:55:16.516Z,7.30
2017-11-17T23:57:43.977Z,7.20
